Pagrindinis puslapis
METAR-TAF:

METAR-TAF

Oro uostai :

Ambonas, Indonezija

platuma: 03-42S, ilguma: 128-05E, Aukštis: 12 m

Dabartinis oras

Ataskaita buvo paskelbta 3 valandos ir 9 minutes, ne 17:00 UTC
Vėjas 6 kt iš Šiaurės/Šiaurės Vakarų
Temperatūra 24°C
Drėgmė 94%
Slėgis 1011 hPa
Matomumas 10 km arba daugiau
Su prošvaistėmis ne aukštis 1700 ft

METAR: WAPP 201700Z 34006KT 9999 BKN017 24/23 Q1011 NOSIG

Laikas: 05:09 (20:09 UTC)

Prognozė

Ataskaita buvo paskelbta 3 valandos ir 9 minutes, ne 17:00 UTC
Prognozė galioja nuo 20 metu 18 UTC su 21 metu 18 UTC
Vėjas 6 kt iš Šiaurės/Šiaurės Vakarų
Matomumas 10 km arba daugiau
Išsisklaidę debesys ne aukštis 1900 ft

TAF: WAPP 201700Z 2018/2118 34006KT 9999 SCT019

Orai ataskaitas ir orų prognozės (METAR, TAF).

turimą stotys yra geltonos ir raudonos taškus žemėlapyje.

Perkelti pele per norėdami pamatyti stoties vardą.

Tada spustelėkite, norėdami matyti oro stebėjimo ir prognozės.

Norėdami pakeisti žemėlapį: spustelėkite ant žalios mygtukų su juodo kryžiaus žemyn,; žalią mygtuką su brūkšneliu, jei norite nutolinti; arba žalių rodyklių gretimoms žemėlapius.


METAR-TAF: